Antelope, California
Current Conditions -  °F | °C
As of 4:45 AM on Thursday 27 Nov 2014 (Local Time) from KMHR Reporting Station
Clear Clear  
Wind Chill: 45°   Ceiling: Unl
Heat Index: 45°   Visibility: 9mi
Dew Point: 45°   Wind: 0mph
Humidity: 100%   Direction: NA
Pressure: 30.18"   Gusts: NA
Location:  38.72°N, 121.37°W
Report Text: KMHR 271245Z 00000KT 9SM SKC 07/07 A3018
Loading
Personal Weather Stations






























Interactive Weather Map New forecast layout! Learn more

10-Day Weather Forecast

Advertisements
Track Severe Weather on mobile